createdAt,value
2023-04-03T00:00:23.751Z,65.75
2023-04-03T00:02:54.527Z,65.77
2023-04-03T00:05:25.632Z,65.30
2023-04-03T00:07:56.674Z,65.23
2023-04-03T00:10:27.218Z,65.11
2023-04-03T00:12:58.050Z,64.44
2023-04-03T00:15:29.506Z,64.94
2023-04-03T00:17:59.936Z,64.97
2023-04-03T00:20:31.671Z,64.98
2023-04-03T00:23:02.571Z,64.71
2023-04-03T00:25:33.010Z,64.84
2023-04-03T00:28:03.806Z,64.09
2023-04-03T00:30:35.058Z,65.01
2023-04-03T00:33:06.484Z,66.50
2023-04-03T00:35:37.945Z,66.89
2023-04-03T00:38:09.524Z,67.33
2023-04-03T00:40:44.355Z,67.46
2023-04-03T00:43:17.851Z,68.58
2023-04-03T00:45:51.258Z,68.07
2023-04-03T00:48:38.045Z,67.95
2023-04-03T00:51:13.256Z,67.95
2023-04-03T00:53:58.389Z,68.47
2023-04-03T00:56:32.084Z,69.49
2023-04-03T00:59:11.336Z,70.23
2023-04-03T01:01:43.434Z,69.79
2023-04-03T01:04:37.080Z,69.70
2023-04-03T01:07:14.214Z,69.52
2023-04-03T01:09:45.889Z,69.38
2023-04-03T01:12:19.197Z,70.13
2023-04-03T01:14:54.653Z,69.79
2023-04-03T01:17:44.452Z,70.33
2023-04-03T01:20:39.097Z,70.10
2023-04-03T01:23:39.527Z,70.92
2023-04-03T01:26:09.780Z,70.59
2023-04-03T01:28:40.289Z,71.06
2023-04-03T01:31:37.424Z,71.31
2023-04-03T01:34:08.945Z,71.08
2023-04-03T01:36:39.391Z,70.89
2023-04-03T01:39:10.902Z,70.79
2023-04-03T01:41:41.804Z,71.13
2023-04-03T01:44:20.086Z,71.04
2023-04-03T01:46:50.570Z,71.57
2023-04-03T01:49:21.383Z,71.76
2023-04-03T01:51:52.562Z,71.96
2023-04-03T01:54:24.178Z,72.00
2023-04-03T01:56:55.763Z,72.02
2023-04-03T01:59:26.334Z,71.68
2023-04-03T02:01:56.530Z,71.64
2023-04-03T02:04:27.112Z,71.83
2023-04-03T02:06:58.274Z,71.76
2023-04-03T02:09:29.161Z,72.01
2023-04-03T02:11:59.371Z,72.41
2023-04-03T02:14:30.708Z,72.15
2023-04-03T02:17:00.976Z,72.18
2023-04-03T02:19:31.044Z,72.13
2023-04-03T02:22:02.766Z,72.13
2023-04-03T02:24:33.618Z,71.89
2023-04-03T02:27:04.909Z,71.74
2023-04-03T02:29:35.506Z,71.88
2023-04-03T02:32:05.680Z,72.11
2023-04-03T02:34:37.550Z,72.14
2023-04-03T02:37:08.455Z,71.98
2023-04-03T02:39:39.696Z,71.91
2023-04-03T02:42:10.176Z,72.06
2023-04-03T02:44:41.278Z,72.11
2023-04-03T02:47:13.009Z,72.26
2023-04-03T02:49:43.919Z,72.15
2023-04-03T02:52:14.355Z,72.24
2023-04-03T02:54:44.587Z,72.22
2023-04-03T02:57:16.271Z,72.41
2023-04-03T02:59:47.086Z,72.79
2023-04-03T03:02:17.672Z,72.86
2023-04-03T03:04:47.815Z,72.78
2023-04-03T03:07:19.775Z,72.97
2023-04-03T03:09:50.306Z,73.39
2023-04-03T03:12:24.915Z,73.54
2023-04-03T03:14:55.313Z,73.57
2023-04-03T03:17:25.451Z,73.68
2023-04-03T03:19:56.471Z,74.01
2023-04-03T03:22:27.606Z,73.85
2023-04-03T03:24:58.544Z,73.86
2023-04-03T03:27:29.614Z,73.75
2023-04-03T03:30:00.440Z,73.55
2023-04-03T03:32:31.437Z,73.27
2023-04-03T03:35:02.896Z,73.40
2023-04-03T03:37:33.045Z,73.60
2023-04-03T03:40:03.212Z,73.77
2023-04-03T03:42:34.738Z,73.89
2023-04-03T03:45:06.789Z,73.88
2023-04-03T03:47:37.502Z,73.93
2023-04-03T03:50:08.613Z,74.19
2023-04-03T03:52:39.769Z,74.12
2023-04-03T03:55:11.804Z,74.21
2023-04-03T03:57:42.313Z,74.12
2023-04-03T04:00:13.054Z,74.06
2023-04-03T04:02:48.451Z,73.68
2023-04-03T04:05:22.226Z,73.40
2023-04-03T04:07:53.883Z,73.28
2023-04-03T04:10:24.851Z,73.23
2023-04-03T04:12:57.414Z,73.27
2023-04-03T04:15:31.517Z,72.94
2023-04-03T04:18:02.085Z,73.07
2023-04-03T04:20:32.629Z,73.05
2023-04-03T04:23:02.945Z,73.10
2023-04-03T04:25:35.373Z,73.12
2023-04-03T04:28:06.003Z,73.08
2023-04-03T04:30:37.781Z,72.77
2023-04-03T04:33:09.290Z,72.62
2023-04-03T04:35:40.537Z,72.32
2023-04-03T04:38:12.114Z,72.35
2023-04-03T04:40:43.888Z,72.42
2023-04-03T04:43:17.478Z,72.34
2023-04-03T04:45:50.259Z,72.56
2023-04-03T04:48:24.527Z,72.39
2023-04-03T04:50:54.933Z,72.56
2023-04-03T04:53:26.111Z,72.65
2023-04-03T04:55:57.887Z,72.54
2023-04-03T04:58:29.634Z,72.71
2023-04-03T05:01:18.351Z,72.85
2023-04-03T05:04:06.124Z,72.71
2023-04-03T05:06:37.564Z,72.59
2023-04-03T05:09:13.798Z,72.86
2023-04-03T05:11:47.679Z,72.79
2023-04-03T05:14:21.042Z,72.88
2023-04-03T05:16:55.127Z,72.90
2023-04-03T05:19:29.535Z,72.74
2023-04-03T05:22:02.588Z,72.86
2023-04-03T05:24:33.521Z,72.73
2023-04-03T05:27:05.079Z,72.50
2023-04-03T05:29:38.736Z,72.13
2023-04-03T05:32:09.432Z,71.74
2023-04-03T05:34:39.774Z,71.61
2023-04-03T05:37:10.524Z,71.35
2023-04-03T05:39:44.753Z,71.30
2023-04-03T05:42:16.193Z,70.91
2023-04-03T05:44:48.474Z,70.83
2023-04-03T05:47:19.457Z,70.74
2023-04-03T05:49:50.668Z,70.73
2023-04-03T05:52:30.271Z,70.48
2023-04-03T05:55:01.240Z,70.28
2023-04-03T05:57:34.701Z,70.26
2023-04-03T06:00:10.743Z,70.36
2023-04-03T06:02:44.574Z,70.21
2023-04-03T06:05:21.333Z,70.12
2023-04-03T06:07:53.591Z,70.10
2023-04-03T06:10:24.059Z,70.33
2023-04-03T06:12:55.582Z,70.23
2023-04-03T06:15:27.258Z,70.23
2023-04-03T06:17:58.579Z,70.02
2023-04-03T06:20:29.879Z,69.81
2023-04-03T06:23:00.856Z,69.70
2023-04-03T06:25:32.301Z,69.46
2023-04-03T06:28:03.328Z,69.46
2023-04-03T06:30:33.736Z,69.36
2023-04-03T06:33:04.670Z,69.10
2023-04-03T06:35:37.309Z,69.48
2023-04-03T06:38:11.771Z,69.43
2023-04-03T06:40:42.122Z,69.55
2023-04-03T06:43:12.954Z,69.60
2023-04-03T06:45:43.457Z,69.69
2023-04-03T06:48:15.267Z,69.69
2023-04-03T06:50:47.225Z,69.95
2023-04-03T06:53:19.454Z,70.08
2023-04-03T06:55:51.072Z,70.15
2023-04-03T06:58:23.213Z,70.21
2023-04-03T07:00:55.089Z,70.41
2023-04-03T07:03:26.171Z,70.48
2023-04-03T07:05:57.749Z,70.29
2023-04-03T07:08:29.196Z,70.27
2023-04-03T07:10:59.571Z,70.41
2023-04-03T07:13:30.642Z,70.57
2023-04-03T07:16:01.612Z,70.82
2023-04-03T07:18:31.838Z,71.03
2023-04-03T07:21:04.460Z,71.00
2023-04-03T07:23:36.402Z,71.12
2023-04-03T07:26:07.808Z,71.30
2023-04-03T07:28:38.976Z,71.40
2023-04-03T07:31:13.962Z,71.62
2023-04-03T07:33:46.260Z,71.69
2023-04-03T07:36:22.933Z,71.96
2023-04-03T07:38:54.163Z,71.98
2023-04-03T07:41:26.296Z,72.06
2023-04-03T07:43:57.979Z,72.35
2023-04-03T07:46:29.747Z,72.37
2023-04-03T07:49:00.184Z,72.36
2023-04-03T07:51:32.080Z,72.45
2023-04-03T07:54:03.257Z,72.55
2023-04-03T07:56:34.615Z,72.90
2023-04-03T07:59:06.320Z,73.16
2023-04-03T08:01:37.042Z,73.23
2023-04-03T08:04:09.166Z,73.17
2023-04-03T08:06:46.322Z,73.34
2023-04-03T08:09:19.288Z,73.60
2023-04-03T08:11:49.615Z,73.48
2023-04-03T08:14:21.461Z,73.73
2023-04-03T08:16:52.256Z,73.98
2023-04-03T08:19:26.650Z,73.75
2023-04-03T08:21:59.851Z,73.93
2023-04-03T08:24:30.864Z,73.82
2023-04-03T08:27:01.311Z,73.86
2023-04-03T08:29:33.645Z,73.80
2023-04-03T08:32:04.728Z,73.90
2023-04-03T08:34:38.077Z,74.13
2023-04-03T08:37:09.746Z,74.00
2023-04-03T08:39:39.966Z,73.87
2023-04-03T08:42:40.511Z,74.15
2023-04-03T08:45:49.405Z,74.10
2023-04-03T08:48:38.300Z,74.31
2023-04-03T08:51:21.925Z,74.35
2023-04-03T08:54:22.708Z,74.59
2023-04-03T08:56:54.633Z,74.40
2023-04-03T08:59:34.520Z,74.65
2023-04-03T09:02:26.056Z,74.69
2023-04-03T09:04:56.825Z,74.52
2023-04-03T09:07:49.327Z,74.87
2023-04-03T09:10:29.035Z,74.72
2023-04-03T09:13:12.284Z,75.08
2023-04-03T09:15:44.725Z,74.77
2023-04-03T09:18:23.390Z,74.99
2023-04-03T09:21:00.729Z,74.94
2023-04-03T09:23:49.215Z,74.84
2023-04-03T09:26:32.979Z,74.98
2023-04-03T09:29:09.513Z,74.99
2023-04-03T09:31:42.967Z,75.17
2023-04-03T09:34:37.980Z,75.28
2023-04-03T09:37:08.661Z,75.08
2023-04-03T09:39:56.766Z,75.21
2023-04-03T09:42:28.742Z,74.95
2023-04-03T09:45:08.052Z,75.17
2023-04-03T09:47:41.183Z,75.03
2023-04-03T09:50:17.422Z,74.88
2023-04-03T09:52:54.781Z,74.71
2023-04-03T09:55:32.788Z,74.75
2023-04-03T09:58:11.765Z,74.60
2023-04-03T10:00:43.131Z,74.56
2023-04-03T10:03:32.826Z,74.24
2023-04-03T10:06:07.079Z,74.08
2023-04-03T10:08:37.916Z,73.92
2023-04-03T10:11:21.176Z,74.00
2023-04-03T10:14:02.507Z,73.76
2023-04-03T10:16:55.734Z,73.71
2023-04-03T10:19:50.661Z,73.52
2023-04-03T10:22:47.348Z,72.91
2023-04-03T10:25:42.468Z,73.35
2023-04-03T10:28:44.571Z,73.42
2023-04-03T10:31:45.435Z,73.05
2023-04-03T10:34:27.006Z,72.88
2023-04-03T10:37:06.796Z,72.54
2023-04-03T10:39:42.473Z,72.05
2023-04-03T10:42:35.922Z,71.75
2023-04-03T10:45:31.168Z,71.30
2023-04-03T10:48:23.133Z,66.50
2023-04-03T10:51:09.511Z,54.32
2023-04-03T10:54:11.608Z,51.56
2023-04-03T10:56:45.484Z,48.16
2023-04-03T10:59:45.300Z,49.11
2023-04-03T11:02:35.037Z,48.50
2023-04-03T11:05:37.327Z,50.45
2023-04-03T11:08:33.744Z,53.90
2023-04-03T11:11:14.428Z,54.79
2023-04-03T11:14:00.631Z,54.25
2023-04-03T11:16:53.552Z,55.52
2023-04-03T11:19:37.716Z,53.59
2023-04-03T11:22:16.107Z,54.69
2023-04-03T11:24:57.710Z,52.40
2023-04-03T11:27:34.754Z,53.19
2023-04-03T11:30:08.311Z,49.24
2023-04-03T11:33:00.110Z,49.37
2023-04-03T11:35:31.944Z,48.29
2023-04-03T11:38:08.791Z,47.49
2023-04-03T11:40:40.636Z,48.10
2023-04-03T11:43:29.209Z,48.36
2023-04-03T11:46:10.561Z,46.53
2023-04-03T11:48:48.859Z,47.91
2023-04-03T11:51:41.888Z,45.82
2023-04-03T11:54:45.266Z,44.82
2023-04-03T11:57:57.151Z,47.36
2023-04-03T12:00:53.200Z,45.15
2023-04-03T12:03:29.715Z,44.34
2023-04-03T12:06:21.459Z,45.15
2023-04-03T12:08:57.111Z,44.44
2023-04-03T12:11:33.853Z,45.81
2023-04-03T12:14:08.794Z,44.82
2023-04-03T12:16:42.386Z,47.90
2023-04-03T12:19:20.796Z,47.92
2023-04-03T12:22:02.741Z,50.41
2023-04-03T12:24:42.901Z,48.78
2023-04-03T12:27:29.026Z,52.57
2023-04-03T12:30:31.158Z,51.92
2023-04-03T12:33:27.143Z,51.73
2023-04-03T12:36:05.572Z,51.56
2023-04-03T12:38:48.703Z,51.55
2023-04-03T12:41:59.558Z,53.38
2023-04-03T12:44:42.903Z,54.03
2023-04-03T12:47:40.478Z,53.78
2023-04-03T12:50:28.252Z,54.93
2023-04-03T12:53:04.918Z,54.49
2023-04-03T12:55:36.255Z,54.28
2023-04-03T12:58:25.725Z,54.33
2023-04-03T13:01:18.626Z,54.74
2023-04-03T13:03:52.639Z,53.05
2023-04-03T13:06:27.500Z,52.34
2023-04-03T13:09:07.132Z,53.08
2023-04-03T13:11:42.798Z,52.97
2023-04-03T13:14:26.144Z,52.18
2023-04-03T13:17:02.511Z,53.46
2023-04-03T13:19:34.533Z,54.09
2023-04-03T13:22:07.445Z,53.01
2023-04-03T13:24:43.294Z,52.42
2023-04-03T13:27:19.257Z,53.15
2023-04-03T13:29:56.047Z,52.32
2023-04-03T13:32:30.416Z,52.23
2023-04-03T13:35:15.538Z,52.42
2023-04-03T13:38:06.152Z,53.54
2023-04-03T13:40:47.341Z,52.80
2023-04-03T13:43:26.754Z,53.40
2023-04-03T13:46:14.474Z,52.02
2023-04-03T13:48:52.681Z,53.36
2023-04-03T13:51:32.977Z,53.69
2023-04-03T13:54:16.419Z,53.98
2023-04-03T13:56:47.040Z,53.00
2023-04-03T13:59:19.391Z,54.06
2023-04-03T14:01:52.121Z,54.53
2023-04-03T14:04:25.365Z,52.59
2023-04-03T14:06:56.412Z,53.40
2023-04-03T14:09:30.946Z,52.47
2023-04-03T14:12:08.535Z,49.63
2023-04-03T14:14:40.872Z,52.22
2023-04-03T14:17:25.305Z,51.26
2023-04-03T14:19:59.488Z,49.94
2023-04-03T14:22:37.517Z,51.40
2023-04-03T14:25:08.353Z,50.36
2023-04-03T14:27:48.604Z,50.13
2023-04-03T14:30:27.271Z,48.18
2023-04-03T14:32:58.308Z,47.09
2023-04-03T14:35:32.420Z,48.34
2023-04-03T14:38:03.543Z,45.73
2023-04-03T14:40:35.246Z,46.27
2023-04-03T14:43:06.262Z,48.76
2023-04-03T14:45:37.630Z,46.96
2023-04-03T14:48:19.494Z,48.41
2023-04-03T14:51:05.245Z,47.47
2023-04-03T14:53:39.578Z,46.89
2023-04-03T14:56:26.737Z,48.65
2023-04-03T14:59:03.209Z,48.28
2023-04-03T15:04:23.645Z,47.39
2023-04-03T15:06:56.343Z,47.83
2023-04-03T15:09:30.548Z,49.46
2023-04-03T15:12:01.251Z,47.91
2023-04-03T15:14:36.851Z,48.74
2023-04-03T15:17:26.445Z,47.91
2023-04-03T15:19:57.892Z,48.86
2023-04-03T15:22:28.396Z,48.82
2023-04-03T15:24:58.999Z,48.84
2023-04-03T15:27:31.157Z,48.18
2023-04-03T15:30:01.899Z,48.20
2023-04-03T15:32:32.607Z,49.51
2023-04-03T15:35:03.590Z,51.07
2023-04-03T15:37:35.299Z,48.85
2023-04-03T15:40:07.898Z,49.19
2023-04-03T15:42:38.290Z,49.56
2023-04-03T15:45:09.367Z,48.99
2023-04-03T15:47:41.275Z,49.72
2023-04-03T15:50:12.827Z,49.91
2023-04-03T15:52:44.356Z,49.10
2023-04-03T15:55:15.469Z,48.26
2023-04-03T15:57:45.933Z,49.07
2023-04-03T16:00:17.026Z,49.54
2023-04-03T16:02:49.917Z,48.55
2023-04-03T16:05:22.256Z,48.58
2023-04-03T16:07:53.369Z,48.30
2023-04-03T16:10:28.574Z,47.55
2023-04-03T16:12:59.976Z,48.28
2023-04-03T16:15:33.405Z,48.02
2023-04-03T16:18:04.726Z,48.87
2023-04-03T16:20:35.980Z,48.71
2023-04-03T16:23:07.075Z,49.92
2023-04-03T16:25:37.931Z,50.36
2023-04-03T16:28:10.519Z,48.85
2023-04-03T16:30:43.488Z,50.05
2023-04-03T16:33:16.037Z,50.93
2023-04-03T16:35:46.872Z,50.60
2023-04-03T16:38:18.919Z,50.41
2023-04-03T16:40:49.930Z,50.45
2023-04-03T16:43:22.237Z,52.04
2023-04-03T16:45:53.650Z,52.49
2023-04-03T16:48:24.929Z,52.01
2023-04-03T16:50:56.669Z,51.27
2023-04-03T16:53:29.312Z,51.60
2023-04-03T16:56:01.252Z,52.54
2023-04-03T16:58:32.458Z,52.86
2023-04-03T17:01:13.486Z,53.48
2023-04-03T17:03:44.041Z,52.18
2023-04-03T17:06:19.201Z,52.47
2023-04-03T17:08:52.789Z,52.76
2023-04-03T17:14:06.890Z,53.12
2023-04-03T17:16:40.200Z,53.94
2023-04-03T17:19:11.187Z,51.85
2023-04-03T17:21:41.802Z,54.00
2023-04-03T17:24:27.126Z,53.82
2023-04-03T17:27:01.139Z,53.35
2023-04-03T17:29:32.347Z,54.87
2023-04-03T17:32:04.155Z,53.18
2023-04-03T17:34:35.216Z,54.05
2023-04-03T17:37:07.745Z,52.91
2023-04-03T17:39:38.460Z,55.06
2023-04-03T17:42:09.361Z,55.18
2023-04-03T17:44:40.540Z,54.78
2023-04-03T17:47:11.586Z,55.07
2023-04-03T17:49:43.107Z,54.69
2023-04-03T17:52:13.540Z,54.34
2023-04-03T17:54:51.757Z,54.23
2023-04-03T17:57:23.422Z,54.32
2023-04-03T17:59:55.900Z,54.22
2023-04-03T18:02:27.855Z,54.01
2023-04-03T18:05:23.888Z,55.45
2023-04-03T18:07:55.187Z,55.20
2023-04-03T18:10:27.817Z,54.90
2023-04-03T18:12:59.916Z,54.77
2023-04-03T18:15:31.338Z,54.50
2023-04-03T18:18:03.030Z,55.10
2023-04-03T18:20:33.429Z,56.45
2023-04-03T18:23:03.887Z,56.70
2023-04-03T18:25:35.232Z,55.59
2023-04-03T18:28:08.896Z,56.15
2023-04-03T18:30:39.825Z,56.84
2023-04-03T18:33:11.547Z,55.50
2023-04-03T18:35:42.915Z,56.05
2023-04-03T18:38:13.483Z,56.09
2023-04-03T18:40:47.113Z,55.62
2023-04-03T18:43:17.645Z,55.14
2023-04-03T18:45:48.584Z,55.92
2023-04-03T18:48:19.854Z,55.19
2023-04-03T18:50:51.006Z,58.05
2023-04-03T18:53:21.632Z,57.47
2023-04-03T18:55:53.401Z,56.14
2023-04-03T18:58:23.944Z,56.54
2023-04-03T19:00:54.161Z,56.86
2023-04-03T19:03:25.361Z,57.00
2023-04-03T19:05:55.646Z,57.02
2023-04-03T19:08:26.963Z,57.28
2023-04-03T19:10:57.814Z,57.64
2023-04-03T19:13:30.576Z,57.29
2023-04-03T19:16:02.099Z,57.52
2023-04-03T19:18:33.070Z,58.92
2023-04-03T19:21:04.189Z,59.37
2023-04-03T19:23:34.403Z,58.73
2023-04-03T19:26:08.670Z,58.57
2023-04-03T19:28:40.504Z,58.25
2023-04-03T19:31:22.191Z,58.97
2023-04-03T19:33:53.851Z,58.76
2023-04-03T19:36:24.144Z,59.30
2023-04-03T19:38:54.844Z,58.75
2023-04-03T19:41:28.792Z,59.39
2023-04-03T19:44:01.283Z,60.40
2023-04-03T19:46:34.610Z,59.25
2023-04-03T19:49:06.796Z,60.55
2023-04-03T19:51:37.921Z,59.94
2023-04-03T19:54:09.403Z,60.07
2023-04-03T19:56:40.643Z,60.11
2023-04-03T19:59:10.966Z,61.00
2023-04-03T20:01:42.801Z,60.85
2023-04-03T20:04:13.077Z,60.07
2023-04-03T20:06:43.337Z,59.91
2023-04-03T20:09:14.300Z,61.27
2023-04-03T20:11:44.613Z,60.74
2023-04-03T20:14:16.179Z,60.48
2023-04-03T20:16:47.085Z,60.07
2023-04-03T20:19:20.542Z,60.79
2023-04-03T20:21:51.636Z,60.92
2023-04-03T20:24:22.370Z,62.02
2023-04-03T20:26:53.121Z,61.28
2023-04-03T20:29:24.279Z,62.11
2023-04-03T20:31:56.331Z,62.27
2023-04-03T20:34:26.749Z,62.51
2023-04-03T20:36:58.537Z,62.40
2023-04-03T20:39:30.825Z,62.47
2023-04-03T20:42:01.473Z,62.93
2023-04-03T20:44:34.370Z,63.83
2023-04-03T20:47:06.058Z,62.92
2023-04-03T20:49:38.022Z,63.99
2023-04-03T20:52:08.487Z,63.95
2023-04-03T20:54:39.726Z,64.45
2023-04-03T20:57:11.347Z,64.55
2023-04-03T20:59:42.585Z,64.36
2023-04-03T21:02:14.481Z,65.53
2023-04-03T21:04:50.954Z,65.12
2023-04-03T21:08:01.023Z,65.11
2023-04-03T21:11:08.745Z,65.23
2023-04-03T21:14:18.231Z,65.59
2023-04-03T21:16:48.312Z,65.87
2023-04-03T21:19:22.172Z,66.39
2023-04-03T21:21:54.105Z,66.74
2023-04-03T21:24:25.905Z,66.95
2023-04-03T21:27:00.997Z,67.28
2023-04-03T21:29:32.277Z,67.08
2023-04-03T21:32:04.348Z,67.16
2023-04-03T21:34:35.209Z,68.49
2023-04-03T21:37:08.182Z,69.43
2023-04-03T21:39:38.772Z,69.54
2023-04-03T21:42:08.908Z,69.41
2023-04-03T21:44:39.581Z,69.03
2023-04-03T21:47:09.786Z,69.53
2023-04-03T21:49:40.009Z,69.00
2023-04-03T21:52:10.577Z,69.72
2023-04-03T21:54:40.984Z,69.32
2023-04-03T21:57:15.767Z,69.18
2023-04-03T21:59:47.479Z,69.38
2023-04-03T22:02:17.905Z,70.08
2023-04-03T22:04:48.982Z,69.49
2023-04-03T22:07:21.052Z,69.72
2023-04-03T22:09:51.860Z,69.71
2023-04-03T22:12:22.342Z,69.58
2023-04-03T22:14:52.356Z,70.10
2023-04-03T22:17:23.505Z,70.30
2023-04-03T22:19:53.892Z,70.62
2023-04-03T22:22:25.029Z,70.91
2023-04-03T22:24:55.355Z,70.10
2023-04-03T22:27:26.244Z,70.88
2023-04-03T22:29:56.757Z,70.33
2023-04-03T22:32:26.721Z,70.07
2023-04-03T22:34:56.947Z,70.25
2023-04-03T22:37:29.680Z,70.78
2023-04-03T22:40:00.890Z,71.18
2023-04-03T22:42:32.005Z,70.55
2023-04-03T22:45:02.375Z,69.98
2023-04-03T22:47:33.541Z,70.11
2023-04-03T22:50:04.443Z,69.02
2023-04-03T22:52:35.240Z,69.06
2023-04-03T22:55:16.573Z,68.85
2023-04-03T22:57:49.365Z,68.96
2023-04-03T23:00:22.950Z,68.49
2023-04-03T23:02:53.989Z,68.51
2023-04-03T23:05:25.368Z,68.30
2023-04-03T23:07:57.412Z,68.33
2023-04-03T23:10:29.142Z,68.08
2023-04-03T23:12:59.520Z,68.26
2023-04-03T23:15:30.818Z,68.46
2023-04-03T23:18:01.304Z,67.69
2023-04-03T23:20:32.282Z,67.65
2023-04-03T23:23:03.704Z,67.94
2023-04-03T23:25:34.940Z,67.75
2023-04-03T23:28:05.487Z,67.70
2023-04-03T23:30:35.660Z,67.82
2023-04-03T23:33:09.673Z,67.70
2023-04-03T23:35:53.977Z,68.07
2023-04-03T23:38:25.184Z,68.33
2023-04-03T23:40:55.539Z,68.44
2023-04-03T23:43:26.813Z,69.41
2023-04-03T23:45:57.790Z,69.10
2023-04-03T23:48:27.987Z,68.91
2023-04-03T23:50:58.372Z,69.28
2023-04-03T23:53:29.428Z,69.29
2023-04-03T23:56:00.587Z,69.53
2023-04-03T23:58:31.735Z,69.57
